Time;durP1;ratioP1;P1;durP2;ratioP2;P2;SDS_P1;SDS_P2;PMS_P1;PMS_P2;Temp;Humidity;BMP_temperature;BMP_pressure;BME280_temperature;BME280_humidity;BME280_pressure;Samples;Min_cycle;Max_cycle;Signal;HPM_P1;HPM_P2
2022/05/09 00:01:42;;;;;;;17.70;17.00;;;;;;;-141.02;100.00;55844.97;5092966;28;20210;-73
2022/05/09 00:04:09;;;;;;;17.17;16.48;;;;;;;-141.02;100.00;55844.97;5092708;28;20642;-73
2022/05/09 00:06:37;;;;;;;17.38;16.60;;;;;;;-141.02;100.00;55844.97;5092660;28;20280;-73
2022/05/09 00:09:06;;;;;;;16.88;16.17;;;;;;;-141.02;100.00;55844.97;5092883;28;20201;-76
2022/05/09 00:11:33;;;;;;;17.60;16.80;;;;;;;-141.02;100.00;55844.97;5092428;28;20194;-73
2022/05/09 00:14:00;;;;;;;17.60;16.80;;;;;;;-141.02;100.00;55844.97;5092262;28;20592;-74
2022/05/09 00:16:33;;;;;;;17.80;17.00;;;;;;;-141.02;100.00;55844.97;5092342;28;20682;-74
2022/05/09 00:19:02;;;;;;;17.25;16.55;;;;;;;-141.02;100.00;55844.97;5092334;28;20194;-73
2022/05/09 00:21:31;;;;;;;17.60;16.80;;;;;;;-141.02;100.00;55844.97;5092598;28;20247;-73
2022/05/09 00:23:58;;;;;;;17.10;16.40;;;;;;;-141.02;100.00;55844.97;5092234;28;20285;-75
2022/05/09 00:26:30;;;;;;;16.97;16.27;;;;;;;-141.02;100.00;55844.97;5092217;28;20280;-73
2022/05/09 00:28:57;;;;;;;16.80;16.10;;;;;;;-141.02;100.00;55844.97;5091914;28;20197;-74
2022/05/09 00:31:24;;;;;;;16.90;16.20;;;;;;;-141.02;100.00;55844.97;5091968;28;20229;-74
2022/05/09 00:33:51;;;;;;;16.70;16.00;;;;;;;-141.02;100.00;55844.97;5092106;28;20229;-73
2022/05/09 00:36:18;;;;;;;16.33;15.73;;;;;;;-141.02;100.00;55844.97;5092043;28;20646;-73
2022/05/09 00:38:45;;;;;;;16.50;15.80;;;;;;;-141.02;100.00;55844.97;5092121;28;20677;-73
2022/05/09 00:41:34;;;;;;;16.70;16.00;;;;;;;-141.02;100.00;55844.97;5092426;28;20282;-73
2022/05/09 00:44:06;;;;;;;17.03;16.33;;;;;;;-141.02;100.00;55844.97;5092421;28;20197;-74
2022/05/09 00:46:34;;;;;;;16.40;15.70;;;;;;;-141.02;100.00;55844.97;5092137;28;20200;-73
2022/05/09 00:49:06;;;;;;;16.60;15.90;;;;;;;-141.02;100.00;55844.97;5092519;28;20585;-75
2022/05/09 00:51:34;;;;;;;16.60;15.90;;;;;;;-141.02;100.00;55844.97;5092330;28;20190;-74
2022/05/09 00:54:03;;;;;;;15.60;15.00;;;;;;;-141.02;100.00;55844.97;5092402;28;20247;-74
2022/05/09 00:56:36;;;;;;;15.37;14.77;;;;;;;-141.02;100.00;55844.97;5092335;28;20202;-73
2022/05/09 00:59:10;;;;;;;16.70;16.00;;;;;;;-141.02;100.00;55844.97;5092420;28;20186;-73
2022/05/09 01:01:39;;;;;;;15.93;15.33;;;;;;;-141.02;100.00;55844.97;5092271;28;20197;-76
2022/05/09 01:04:10;;;;;;;15.83;15.23;;;;;;;-141.02;100.00;55844.97;5092005;28;20293;-73
2022/05/09 01:06:38;;;;;;;15.82;15.23;;;;;;;-141.02;100.00;55844.97;5092447;28;20723;-73
2022/05/09 01:09:06;;;;;;;15.13;14.52;;;;;;;-141.02;100.00;55844.97;5092512;28;20201;-73
2022/05/09 01:11:34;;;;;;;16.10;15.50;;;;;;;-141.02;100.00;55844.97;5092396;28;20281;-76
2022/05/09 01:14:07;;;;;;;16.40;15.80;;;;;;;-141.02;100.00;55844.97;5092008;28;20265;-74
2022/05/09 01:16:35;;;;;;;15.50;14.90;;;;;;;-141.02;100.00;55844.97;5091975;28;20701;-73
2022/05/09 01:19:19;;;;;;;15.60;15.00;;;;;;;-141.02;100.00;55844.97;5092187;28;20284;-73
2022/05/09 01:21:47;;;;;;;15.70;15.10;;;;;;;-141.02;100.00;55844.97;5092199;28;20192;-73
2022/05/09 01:24:17;;;;;;;15.20;14.70;;;;;;;-141.02;100.00;55844.97;5092166;28;20247;-74
2022/05/09 01:26:44;;;;;;;15.47;14.87;;;;;;;-141.02;100.00;55844.97;5092276;28;20225;-74
2022/05/09 01:29:18;;;;;;;15.70;15.10;;;;;;;-141.02;100.00;55844.97;5092184;28;20201;-77
2022/05/09 01:31:48;;;;;;;15.00;14.50;;;;;;;-141.02;100.00;55844.97;5091652;28;20718;-75
2022/05/09 01:34:17;;;;;;;15.73;15.13;;;;;;;-141.02;100.00;55844.97;5092014;28;20224;-73
2022/05/09 01:36:50;;;;;;;15.47;14.87;;;;;;;-141.02;100.00;55844.97;5092317;28;20281;-74
2022/05/09 01:39:18;;;;;;;15.63;15.03;;;;;;;-141.02;100.00;55844.97;5092136;28;20201;-76
2022/05/09 01:41:48;;;;;;;15.33;14.73;;;;;;;-141.02;100.00;55844.97;5095570;28;20193;-73
2022/05/09 01:44:16;;;;;;;15.85;15.25;;;;;;;-141.02;100.00;55844.97;5095902;28;20197;-73
2022/05/09 01:49:31;;;;;;;15.60;15.00;;;;;;;-141.02;100.00;55844.97;5097010;28;20258;-73
2022/05/09 01:52:01;;;;;;;15.60;15.00;;;;;;;-141.02;100.00;55844.97;5095589;28;20208;-74
2022/05/09 01:54:29;;;;;;;15.30;14.70;;;;;;;-141.02;100.00;55844.97;5095745;28;20239;-73
2022/05/09 01:56:56;;;;;;;14.90;14.30;;;;;;;-141.02;100.00;55844.97;5096014;28;20197;-72
2022/05/09 01:59:24;;;;;;;15.43;14.83;;;;;;;-141.02;100.00;55844.97;5095744;28;20655;-73
2022/05/09 02:01:55;;;;;;;15.57;14.97;;;;;;;-141.02;100.00;55844.97;5095058;28;20288;-75
2022/05/09 02:04:23;;;;;;;15.53;14.93;;;;;;;-141.02;100.00;55844.97;5095968;28;20277;-74
2022/05/09 02:06:51;;;;;;;15.90;15.30;;;;;;;-141.02;100.00;55844.97;5095390;28;20189;-73
2022/05/09 02:09:20;;;;;;;15.93;15.32;;;;;;;-141.02;100.00;55844.97;5094787;28;20197;-72
2022/05/09 02:11:47;;;;;;;15.70;15.10;;;;;;;-141.02;100.00;55844.97;5095097;28;20204;-73
2022/05/09 02:14:14;;;;;;;15.67;15.07;;;;;;;-141.02;100.00;55844.97;5094615;28;20603;-74
2022/05/09 02:16:41;;;;;;;15.23;14.63;;;;;;;-141.02;100.00;55844.97;5094781;28;20233;-73
2022/05/09 02:19:09;;;;;;;15.30;14.70;;;;;;;-141.02;100.00;55844.97;5094889;28;20222;-72
2022/05/09 02:21:36;;;;;;;15.50;14.90;;;;;;;-141.02;100.00;55844.97;5094847;28;20197;-72
2022/05/09 02:24:03;;;;;;;14.87;14.37;;;;;;;-141.02;100.00;55844.97;5096154;28;20233;-76
2022/05/09 02:26:32;;;;;;;14.50;14.00;;;;;;;-141.02;100.00;55844.97;5094930;28;20225;-73
2022/05/09 02:28:59;;;;;;;14.23;13.73;;;;;;;-141.02;100.00;55844.97;5094667;28;20194;-72
2022/05/09 02:31:26;;;;;;;14.53;14.03;;;;;;;-141.02;100.00;55844.97;5094109;28;20312;-73
2022/05/09 02:33:53;;;;;;;14.50;14.00;;;;;;;-141.02;100.00;55844.97;5094451;28;20233;-75
2022/05/09 02:36:20;;;;;;;14.60;14.10;;;;;;;-141.02;100.00;55844.97;5094155;28;20281;-74
2022/05/09 02:38:47;;;;;;;14.50;14.00;;;;;;;-141.02;100.00;55844.97;5094215;28;20739;-75
2022/05/09 02:41:14;;;;;;;14.70;14.20;;;;;;;-141.02;100.00;55844.97;5094156;28;20193;-73
2022/05/09 02:43:43;;;;;;;14.43;13.93;;;;;;;-141.02;100.00;55844.97;5094081;28;20688;-73
2022/05/09 02:46:10;;;;;;;14.40;13.90;;;;;;;-141.02;100.00;55844.97;5094321;28;20280;-73
2022/05/09 02:48:38;;;;;;;14.50;14.00;;;;;;;-141.02;100.00;55844.97;5093977;28;20684;-75
2022/05/09 02:51:06;;;;;;;14.93;14.43;;;;;;;-141.02;100.00;55844.97;5093556;28;20197;-73
2022/05/09 02:53:33;;;;;;;14.10;13.60;;;;;;;-141.02;100.00;55844.97;5093757;28;20230;-73
2022/05/09 02:56:00;;;;;;;14.57;14.07;;;;;;;-141.02;100.00;55844.97;5094177;28;20198;-74
2022/05/09 02:58:27;;;;;;;14.80;14.30;;;;;;;-141.02;100.00;55844.97;5094086;28;20280;-73
2022/05/09 03:00:56;;;;;;;14.70;14.20;;;;;;;-141.02;100.00;55844.97;5094005;28;20274;-74
2022/05/09 03:06:07;;;;;;;13.80;13.30;;;;;;;-141.02;100.00;55844.97;5094309;28;20250;-74
2022/05/09 03:08:35;;;;;;;14.43;13.93;;;;;;;-141.02;100.00;55844.97;5093918;28;20282;-73
2022/05/09 03:11:02;;;;;;;14.10;13.60;;;;;;;-141.02;100.00;55844.97;5093472;28;20711;-73
2022/05/09 03:13:29;;;;;;;14.40;13.90;;;;;;;-141.02;100.00;55844.97;5093669;28;20236;-73
2022/05/09 03:16:00;;;;;;;13.80;13.30;;;;;;;-141.02;100.00;55844.97;5093388;28;20671;-74
2022/05/09 03:18:27;;;;;;;14.30;13.80;;;;;;;-141.02;100.00;55844.97;5093762;28;20192;-74
2022/05/09 03:20:55;;;;;;;14.50;14.00;;;;;;;-141.02;100.00;55844.97;5093721;28;20284;-73
2022/05/09 03:23:22;;;;;;;14.40;13.90;;;;;;;-141.02;100.00;55844.97;5093652;28;20284;-73
2022/05/09 03:25:49;;;;;;;13.50;13.10;;;;;;;-141.02;100.00;55844.97;5093561;28;20281;-73
2022/05/09 03:28:20;;;;;;;14.47;13.97;;;;;;;-141.02;100.00;55844.97;5093515;28;20229;-73
2022/05/09 03:30:50;;;;;;;14.30;13.80;;;;;;;-141.02;100.00;55844.97;5093499;28;20302;-73
2022/05/09 03:33:19;;;;;;;14.10;13.60;;;;;;;-141.02;100.00;55844.97;5093260;28;20276;-74
2022/05/09 03:35:47;;;;;;;14.40;13.90;;;;;;;-141.02;100.00;55844.97;5093415;28;20196;-73
2022/05/09 03:38:14;;;;;;;15.20;14.70;;;;;;;-141.02;100.00;55844.97;5093266;28;20216;-73
2022/05/09 03:40:42;;;;;;;14.83;14.33;;;;;;;-141.02;100.00;55844.97;5093286;28;20190;-73
2022/05/09 03:43:10;;;;;;;14.40;13.90;;;;;;;-141.02;100.00;55844.97;5093269;28;20280;-73
2022/05/09 03:45:39;;;;;;;14.30;13.80;;;;;;;-141.02;100.00;55844.97;5093167;28;20243;-74
2022/05/09 03:48:07;;;;;;;14.67;14.17;;;;;;;-141.02;100.00;55844.97;5093084;28;20272;-73
2022/05/09 03:50:35;;;;;;;14.80;14.30;;;;;;;-141.02;100.00;55844.97;5093158;28;20276;-74
2022/05/09 03:53:02;;;;;;;15.70;15.10;;;;;;;-141.02;100.00;55844.97;5093014;28;20220;-73
2022/05/09 03:55:29;;;;;;;16.30;15.70;;;;;;;-141.02;100.00;55844.97;5092842;28;20196;-73
2022/05/09 03:57:58;;;;;;;15.47;14.87;;;;;;;-141.02;100.00;55844.97;5092969;28;20276;-73
2022/05/09 04:00:27;;;;;;;14.90;14.30;;;;;;;-141.02;100.00;55844.97;5092693;28;20197;-74
2022/05/09 04:02:55;;;;;;;15.38;14.77;;;;;;;-141.02;100.00;55844.97;5092217;28;20284;-73
2022/05/09 04:05:22;;;;;;;15.95;15.25;;;;;;;-141.02;100.00;55844.97;5092859;28;20225;-73
2022/05/09 04:07:52;;;;;;;16.42;15.68;;;;;;;-141.02;100.00;55844.97;5092782;28;20194;-73
2022/05/09 04:10:22;;;;;;;16.80;16.00;;;;;;;-141.02;100.00;55844.97;5092568;28;20676;-73
2022/05/09 04:12:49;;;;;;;17.17;16.38;;;;;;;-141.02;100.00;55844.97;5092393;28;20579;-72
2022/05/09 04:18:01;;;;;;;17.25;16.45;;;;;;;-141.02;100.00;55844.97;5092832;28;20189;-73
2022/05/09 04:20:29;;;;;;;16.83;16.02;;;;;;;-141.02;100.00;55844.97;5093519;28;20293;-76
2022/05/09 04:22:58;;;;;;;16.70;15.90;;;;;;;-141.02;100.00;55844.97;5092403;28;20668;-73
2022/05/09 04:25:25;;;;;;;16.77;15.98;;;;;;;-141.02;100.00;55844.97;5092546;28;20233;-73
2022/05/09 04:27:53;;;;;;;17.00;16.20;;;;;;;-141.02;100.00;55844.97;5092557;28;20224;-73
2022/05/09 04:30:20;;;;;;;16.73;15.93;;;;;;;-141.02;100.00;55844.97;5091845;28;20723;-76
2022/05/09 04:32:48;;;;;;;16.65;15.95;;;;;;;-141.02;100.00;55844.97;5092511;28;20229;-74
2022/05/09 04:35:17;;;;;;;16.20;15.50;;;;;;;-141.02;100.00;55844.97;5092343;28;20312;-76
2022/05/09 04:37:47;;;;;;;17.15;16.35;;;;;;;-141.02;100.00;55844.97;5092094;28;20652;-72
2022/05/09 04:40:17;;;;;;;17.08;16.27;;;;;;;-141.02;100.00;55844.97;5092041;28;20579;-73
2022/05/09 04:42:44;;;;;;;16.95;16.15;;;;;;;-141.02;100.00;55844.97;5092333;28;20280;-74
2022/05/09 04:45:12;;;;;;;17.17;16.38;;;;;;;-141.02;100.00;55844.97;5092033;28;20675;-73
2022/05/09 04:47:40;;;;;;;16.90;16.10;;;;;;;-141.02;100.00;55844.97;5091983;28;20580;-74
2022/05/09 04:50:09;;;;;;;16.90;16.10;;;;;;;-141.02;100.00;55844.97;5092369;28;20194;-74
2022/05/09 04:52:36;;;;;;;17.08;16.27;;;;;;;-141.02;100.00;55844.97;5091948;28;20679;-72
2022/05/09 04:55:03;;;;;;;16.90;16.10;;;;;;;-141.02;100.00;55844.97;5091882;28;20243;-72
2022/05/09 04:57:33;;;;;;;17.17;16.38;;;;;;;-141.02;100.00;55844.97;5092264;28;20196;-72
2022/05/09 05:00:01;;;;;;;16.70;15.90;;;;;;;-141.02;100.00;55844.97;5092284;28;20193;-74
2022/05/09 05:02:28;;;;;;;16.90;16.10;;;;;;;-141.02;100.00;55844.97;5091958;28;20255;-73
2022/05/09 05:04:55;;;;;;;16.92;16.13;;;;;;;-141.02;100.00;55844.97;5092396;28;20640;-73
2022/05/09 05:07:22;;;;;;;16.75;15.95;;;;;;;-141.02;100.00;55844.97;5092226;28;20201;-72
2022/05/09 05:09:49;;;;;;;16.48;15.77;;;;;;;-141.02;100.00;55844.97;5091901;28;20190;-72
2022/05/09 05:12:16;;;;;;;16.25;15.55;;;;;;;-141.02;100.00;55844.97;5092033;28;20198;-72
2022/05/09 05:14:45;;;;;;;16.50;15.80;;;;;;;-141.02;100.00;55844.97;5093898;28;20320;-73
2022/05/09 05:17:12;;;;;;;16.33;15.63;;;;;;;-141.02;100.00;55844.97;5095675;28;20190;-72
2022/05/09 05:19:42;;;;;;;16.50;15.80;;;;;;;-141.02;100.00;55844.97;5095697;28;20280;-72
2022/05/09 05:22:10;;;;;;;16.48;15.77;;;;;;;-141.02;100.00;55844.97;5095564;28;20198;-75
2022/05/09 05:24:41;;;;;;;16.25;15.55;;;;;;;-141.02;100.00;55844.97;5095888;28;20198;-75
2022/05/09 05:27:08;;;;;;;16.40;15.70;;;;;;;-141.02;100.00;55844.97;5095551;28;20194;-73
2022/05/09 05:29:35;;;;;;;16.25;15.55;;;;;;;-141.02;100.00;55844.97;5095343;28;20597;-73
2022/05/09 05:32:14;;;;;;;16.60;15.90;;;;;;;-141.02;100.00;55844.97;5095514;28;20215;-72
2022/05/09 05:34:41;;;;;;;16.80;16.10;;;;;;;-141.02;100.00;55844.97;5095368;28;20217;-71
2022/05/09 05:37:08;;;;;;;16.65;15.95;;;;;;;-141.02;100.00;55844.97;5095595;28;20293;-73
2022/05/09 05:39:36;;;;;;;16.55;15.85;;;;;;;-141.02;100.00;55844.97;5095604;28;20216;-73
2022/05/09 05:42:05;;;;;;;16.42;15.73;;;;;;;-141.02;100.00;55844.97;5095271;28;20196;-72
2022/05/09 05:44:32;;;;;;;16.50;15.80;;;;;;;-141.02;100.00;55844.97;5095475;28;20650;-73
2022/05/09 05:46:59;;;;;;;16.05;15.45;;;;;;;-141.02;100.00;55844.97;5095491;28;20573;-74
2022/05/09 05:49:27;;;;;;;16.02;15.43;;;;;;;-141.02;100.00;55844.97;5095341;28;20280;-74
2022/05/09 05:51:54;;;;;;;16.10;15.50;;;;;;;-141.02;100.00;55844.97;5095357;28;20225;-74
2022/05/09 05:54:21;;;;;;;15.70;15.10;;;;;;;-141.02;100.00;55844.97;5094923;28;20217;-73
2022/05/09 05:56:48;;;;;;;15.88;15.27;;;;;;;-141.02;100.00;55844.97;5095251;28;20194;-74
2022/05/09 05:59:15;;;;;;;16.42;15.73;;;;;;;-141.02;100.00;55844.97;5094925;28;20289;-73
2022/05/09 06:01:42;;;;;;;16.17;15.48;;;;;;;-141.02;100.00;55844.97;5095128;28;20221;-77
2022/05/09 06:04:09;;;;;;;16.23;15.52;;;;;;;-141.02;100.00;55844.97;5095137;28;20282;-72
2022/05/09 06:06:37;;;;;;;16.42;15.73;;;;;;;-141.02;100.00;55844.97;5095116;28;20273;-74
2022/05/09 06:09:05;;;;;;;16.08;15.48;;;;;;;-141.02;100.00;55844.97;5094701;28;20646;-73
2022/05/09 06:11:32;;;;;;;16.17;15.50;;;;;;;-141.02;100.00;55844.97;5095577;28;20598;-72
2022/05/09 06:14:00;;;;;;;15.85;15.25;;;;;;;-141.02;100.00;55844.97;5094521;28;20226;-73
2022/05/09 06:16:27;;;;;;;16.30;15.60;;;;;;;-141.02;100.00;55844.97;5094893;28;20201;-72
2022/05/09 06:18:54;;;;;;;16.00;15.40;;;;;;;-141.02;100.00;55844.97;5094492;28;20229;-73
2022/05/09 06:21:21;;;;;;;15.80;15.20;;;;;;;-141.02;100.00;55844.97;5094548;28;20642;-74
2022/05/09 06:23:50;;;;;;;16.00;15.40;;;;;;;-141.02;100.00;55844.97;5094456;28;20652;-75
2022/05/09 06:26:17;;;;;;;16.25;15.57;;;;;;;-141.02;100.00;55844.97;5093698;28;20580;-72
2022/05/09 06:28:44;;;;;;;15.77;15.18;;;;;;;-141.02;100.00;55844.97;5094401;28;20233;-72
2022/05/09 06:31:11;;;;;;;16.00;15.30;;;;;;;-141.02;100.00;55844.97;5094164;28;20236;-73
2022/05/09 06:33:38;;;;;;;16.50;15.80;;;;;;;-141.02;100.00;55844.97;5094573;28;20590;-73
2022/05/09 06:36:06;;;;;;;16.40;15.70;;;;;;;-141.02;100.00;55844.97;5094164;28;20271;-72
2022/05/09 06:38:34;;;;;;;17.52;16.83;;;;;;;-141.02;100.00;55844.97;5094433;28;20209;-72
2022/05/09 06:41:02;;;;;;;16.35;15.75;;;;;;;-141.02;100.00;55844.97;5094172;28;20193;-73
2022/05/09 06:43:30;;;;;;;16.83;16.13;;;;;;;-141.02;100.00;55844.97;5094050;28;20233;-72
2022/05/09 06:45:57;;;;;;;16.15;15.55;;;;;;;-141.02;100.00;55844.97;5094318;28;20193;-73
2022/05/09 06:48:24;;;;;;;16.30;15.70;;;;;;;-141.02;100.00;55844.97;5094349;28;20276;-74
2022/05/09 06:50:51;;;;;;;16.00;15.40;;;;;;;-141.02;100.00;55844.97;5093950;28;20289;-72
2022/05/09 06:53:18;;;;;;;16.70;16.00;;;;;;;-141.02;100.00;55844.97;5093891;28;20198;-73
2022/05/09 06:55:46;;;;;;;16.10;15.50;;;;;;;-141.02;100.00;55844.97;5093710;28;20662;-75
2022/05/09 06:58:17;;;;;;;16.50;15.80;;;;;;;-141.02;100.00;55844.97;5093834;28;20197;-72
2022/05/09 07:00:45;;;;;;;16.30;15.70;;;;;;;-141.02;100.00;55844.97;5093741;28;20193;-74
2022/05/09 07:03:13;;;;;;;16.55;15.95;;;;;;;-141.02;100.00;55844.97;5093713;28;20189;-72
2022/05/09 07:05:43;;;;;;;16.55;15.95;;;;;;;-141.02;100.00;55844.97;5093860;28;20198;-71
2022/05/09 07:08:10;;;;;;;16.52;15.82;;;;;;;-141.02;100.00;55844.97;5093617;28;20190;-73
2022/05/09 07:10:37;;;;;;;16.00;15.40;;;;;;;-141.02;100.00;55844.97;5093584;28;20674;-74
2022/05/09 07:13:05;;;;;;;16.27;15.68;;;;;;;-141.02;100.00;55844.97;5093852;28;20189;-73
2022/05/09 07:15:35;;;;;;;16.15;15.55;;;;;;;-141.02;100.00;55844.97;5093408;28;20236;-76
2022/05/09 07:18:03;;;;;;;16.60;15.90;;;;;;;-141.02;100.00;55844.97;5093375;28;20284;-77
2022/05/09 07:20:32;;;;;;;15.98;15.38;;;;;;;-141.02;100.00;55844.97;5093355;28;20285;-74
2022/05/09 07:23:06;;;;;;;16.27;15.57;;;;;;;-141.02;100.00;55844.97;5093315;28;20197;-74
2022/05/09 07:25:33;;;;;;;15.88;15.27;;;;;;;-141.02;100.00;55844.97;5093319;28;20667;-74
2022/05/09 07:28:00;;;;;;;16.45;15.75;;;;;;;-141.02;100.00;55844.97;5093222;28;20293;-73
2022/05/09 07:30:28;;;;;;;16.13;15.45;;;;;;;-141.02;100.00;55844.97;5092994;28;20221;-73
2022/05/09 07:32:57;;;;;;;16.25;15.55;;;;;;;-141.02;100.00;55844.97;5093479;28;20191;-73
2022/05/09 07:35:25;;;;;;;15.90;15.25;;;;;;;-141.02;100.00;55844.97;5093253;28;20286;-74
2022/05/09 07:37:52;;;;;;;16.40;15.70;;;;;;;-141.02;100.00;55844.97;5092392;28;20251;-73
2022/05/09 07:40:20;;;;;;;16.05;15.35;;;;;;;-141.02;100.00;55844.97;5093253;28;20205;-74
2022/05/09 07:42:48;;;;;;;17.08;16.38;;;;;;;-141.02;100.00;55844.97;5092925;28;20228;-72
2022/05/09 07:45:18;;;;;;;16.88;16.17;;;;;;;-141.02;100.00;55844.97;5093124;28;20273;-75
2022/05/09 07:47:46;;;;;;;16.95;16.25;;;;;;;-141.02;100.00;55844.97;5093196;28;20194;-73
2022/05/09 07:50:16;;;;;;;16.60;15.90;;;;;;;-141.02;100.00;55844.97;5093159;28;20205;-72
2022/05/09 07:52:44;;;;;;;16.10;15.40;;;;;;;-141.02;100.00;55844.97;5092778;28;20225;-73
2022/05/09 07:55:12;;;;;;;16.25;15.55;;;;;;;-141.02;100.00;55844.97;5092684;28;20232;-76
2022/05/09 07:57:39;;;;;;;16.55;15.85;;;;;;;-141.02;100.00;55844.97;5092991;28;20198;-77
2022/05/09 08:00:07;;;;;;;16.35;15.65;;;;;;;-141.02;100.00;55844.97;5092634;28;20244;-75
2022/05/09 08:02:34;;;;;;;16.38;15.68;;;;;;;-141.02;100.00;55844.97;5092877;28;20289;-75
2022/05/09 08:05:02;;;;;;;16.48;15.77;;;;;;;-141.02;100.00;55844.97;5092870;28;20194;-77
2022/05/09 08:07:30;;;;;;;16.70;16.08;;;;;;;-141.02;100.00;55844.97;5093027;28;20193;-79
2022/05/09 08:09:57;;;;;;;16.00;15.40;;;;;;;-141.02;100.00;55844.97;5092783;28;20194;-86
2022/05/09 08:12:24;;;;;;;15.80;15.20;;;;;;;-141.02;100.00;55844.97;5092493;28;20231;-80
2022/05/09 08:14:51;;;;;;;16.08;15.48;;;;;;;-141.02;100.00;55844.97;5092626;28;20251;-77
2022/05/09 08:17:18;;;;;;;16.35;15.75;;;;;;;-141.02;100.00;55844.97;5092532;28;20197;-82
2022/05/09 08:19:47;;;;;;;15.88;15.27;;;;;;;-141.02;100.00;55844.97;5092802;28;20190;-78
2022/05/09 08:22:14;;;;;;;16.10;15.50;;;;;;;-141.02;100.00;55844.97;5092591;28;20194;-73
2022/05/09 08:24:42;;;;;;;15.93;15.32;;;;;;;-141.02;100.00;55844.97;5092285;28;20197;-75
2022/05/09 08:27:09;;;;;;;15.73;15.13;;;;;;;-141.02;100.00;55844.97;5092538;28;20205;-73
2022/05/09 08:29:36;;;;;;;15.70;15.10;;;;;;;-141.02;100.00;55844.97;5092045;28;20193;-74
2022/05/09 08:32:05;;;;;;;15.77;15.18;;;;;;;-141.02;100.00;55844.97;5092580;28;20612;-73
2022/05/09 08:34:32;;;;;;;15.52;14.93;;;;;;;-141.02;100.00;55844.97;5092116;28;20190;-75
2022/05/09 08:37:00;;;;;;;15.80;15.20;;;;;;;-141.02;100.00;55844.97;5092536;28;20243;-85
2022/05/09 08:39:27;;;;;;;15.77;15.18;;;;;;;-141.02;100.00;55844.97;5092113;28;20201;-82
2022/05/09 08:41:59;;;;;;;15.65;15.05;;;;;;;-141.02;100.00;55844.97;5092500;28;20676;-80
2022/05/09 08:45:09;;;;;;;15.63;15.02;;;;;;;-141.02;100.00;55844.97;5092062;28;20196;-85
2022/05/09 08:48:06;;;;;;;16.05;15.45;;;;;;;-141.02;100.00;55844.97;5092718;28;20194;-78
2022/05/09 08:50:43;;;;;;;15.73;15.13;;;;;;;-141.02;100.00;55844.97;5078802;28;20293;-83
2022/05/09 08:53:13;;;;;;;15.85;15.25;;;;;;;-141.02;100.00;55844.97;5096270;28;20217;-80
2022/05/09 08:55:42;;;;;;;16.08;15.48;;;;;;;-141.02;100.00;55844.97;5096130;28;20327;-83
2022/05/09 08:58:24;;;;;;;16.08;15.48;;;;;;;-141.02;100.00;55844.97;5096373;28;20196;-77
2022/05/09 09:00:52;;;;;;;16.38;15.68;;;;;;;-141.02;100.00;55844.97;5096224;28;20235;-82
2022/05/09 09:03:28;;;;;;;16.02;15.43;;;;;;;-141.02;100.00;55844.97;5096505;28;20204;-81
2022/05/09 09:06:03;;;;;;;16.10;15.50;;;;;;;-141.02;100.00;55844.97;5096500;28;20199;-80
2022/05/09 09:08:43;;;;;;;16.40;15.70;;;;;;;-141.02;100.00;55844.97;5096214;28;20725;-81
2022/05/09 09:11:19;;;;;;;16.35;15.65;;;;;;;-141.02;100.00;55844.97;5096188;28;20721;-80
2022/05/09 09:13:57;;;;;;;16.75;16.05;;;;;;;-141.02;100.00;55844.97;5096191;28;20660;-79
2022/05/09 09:16:42;;;;;;;16.67;15.98;;;;;;;-141.02;100.00;55844.97;5096097;28;20267;-79
2022/05/09 09:19:28;;;;;;;16.02;15.43;;;;;;;-141.02;100.00;55844.97;5096160;28;20186;-83
2022/05/09 09:22:04;;;;;;;15.90;15.30;;;;;;;-141.02;100.00;55844.97;5095798;28;20194;-79
2022/05/09 09:24:50;;;;;;;15.68;15.07;;;;;;;-141.02;100.00;55844.97;5095819;28;20185;-78
2022/05/09 09:27:34;;;;;;;15.98;15.38;;;;;;;-141.02;100.00;55844.97;5095971;28;20223;-84
2022/05/09 09:30:10;;;;;;;16.00;15.40;;;;;;;-141.02;100.00;55844.97;5095324;28;20225;-75
2022/05/09 09:32:40;;;;;;;15.93;15.32;;;;;;;-141.02;100.00;55844.97;5095678;28;20229;-81
2022/05/09 09:35:14;;;;;;;15.98;15.38;;;;;;;-141.02;100.00;55844.97;5095707;28;20693;-75
2022/05/09 09:37:50;;;;;;;15.95;15.35;;;;;;;-141.02;100.00;55844.97;5095498;28;20648;-80
2022/05/09 09:40:18;;;;;;;27.25;25.92;;;;;;;-141.02;100.00;55844.97;5095486;28;20224;-79
2022/05/09 09:42:45;;;;;;;15.60;15.00;;;;;;;-141.02;100.00;55844.97;5095912;28;20194;-86
2022/05/09 09:45:27;;;;;;;15.73;15.13;;;;;;;-141.02;100.00;55844.97;5095448;28;20197;-84
2022/05/09 09:48:10;;;;;;;15.98;15.38;;;;;;;-141.02;100.00;55844.97;5095660;28;20190;-80
2022/05/09 09:50:38;;;;;;;15.60;15.00;;;;;;;-141.02;100.00;55844.97;5095483;28;20251;-82
2022/05/09 09:53:07;;;;;;;15.70;15.10;;;;;;;-141.02;100.00;55844.97;5095825;28;20190;-77
2022/05/09 09:55:36;;;;;;;15.70;15.10;;;;;;;-141.02;100.00;55844.97;5095011;28;20228;-76
2022/05/09 09:58:23;;;;;;;15.52;14.93;;;;;;;-141.02;100.00;55844.97;5095204;28;20189;-80
2022/05/09 10:01:04;;;;;;;16.15;15.45;;;;;;;-141.02;100.00;55844.97;5094236;28;20268;-80
2022/05/09 10:03:33;;;;;;;16.02;15.38;;;;;;;-141.02;100.00;55844.97;5095249;28;20608;-82
2022/05/09 10:06:01;;;;;;;16.20;15.52;;;;;;;-141.02;100.00;55844.97;5094806;28;20205;-83
2022/05/09 10:08:32;;;;;;;15.68;15.07;;;;;;;-141.02;100.00;55844.97;5094813;28;20228;-82
2022/05/09 10:11:06;;;;;;;15.80;15.20;;;;;;;-141.02;100.00;55844.97;5095342;28;20265;-82
2022/05/09 10:13:40;;;;;;;15.63;15.02;;;;;;;-141.02;100.00;55844.97;5094907;28;20188;-79
2022/05/09 10:16:12;;;;;;;15.73;15.13;;;;;;;-141.02;100.00;55844.97;5095216;28;20234;-75
2022/05/09 10:18:42;;;;;;;15.48;14.88;;;;;;;-141.02;100.00;55844.97;5095017;28;20201;-86
2022/05/09 10:21:19;;;;;;;15.57;14.98;;;;;;;-141.02;100.00;55844.97;5095247;28;20194;-78
2022/05/09 10:26:36;;;;;;;15.60;15.00;;;;;;;-141.02;100.00;55844.97;5095102;28;20674;-72
2022/05/09 10:29:08;;;;;;;15.48;14.88;;;;;;;-141.02;100.00;55844.97;5094331;28;20698;-73
2022/05/09 10:31:43;;;;;;;15.32;14.73;;;;;;;-141.02;100.00;55844.97;5094238;28;20225;-75
2022/05/09 10:34:18;;;;;;;15.40;14.80;;;;;;;-141.02;100.00;55844.97;5094337;28;20678;-73
2022/05/09 10:36:54;;;;;;;15.20;14.60;;;;;;;-141.02;100.00;55844.97;5094589;28;20213;-73
2022/05/09 10:39:26;;;;;;;15.38;14.77;;;;;;;-141.02;100.00;55844.97;5094138;28;20681;-75
2022/05/09 10:41:58;;;;;;;15.57;14.98;;;;;;;-141.02;100.00;55844.97;5094528;28;20186;-75
2022/05/09 10:44:29;;;;;;;15.82;15.23;;;;;;;-141.02;100.00;55844.97;5094141;28;20215;-76
2022/05/09 10:47:03;;;;;;;15.90;15.30;;;;;;;-141.02;100.00;55844.97;5094667;28;20193;-75
2022/05/09 10:49:40;;;;;;;15.70;15.10;;;;;;;-141.02;100.00;55844.97;5094065;28;20300;-72
2022/05/09 10:52:31;;;;;;;15.95;15.35;;;;;;;-141.02;100.00;55844.97;5094358;28;20186;-74
2022/05/09 10:55:04;;;;;;;15.95;15.35;;;;;;;-141.02;100.00;55844.97;5093932;28;20251;-73
2022/05/09 10:57:37;;;;;;;16.10;15.40;;;;;;;-141.02;100.00;55844.97;5094086;28;20193;-71
2022/05/09 11:00:09;;;;;;;15.77;15.18;;;;;;;-141.02;100.00;55844.97;5093844;28;20631;-74
2022/05/09 11:02:40;;;;;;;15.65;15.05;;;;;;;-141.02;100.00;55844.97;5094072;28;20197;-73
2022/05/09 11:05:09;;;;;;;16.00;15.40;;;;;;;-141.02;100.00;55844.97;5093818;28;20542;-72
2022/05/09 11:07:44;;;;;;;16.00;15.40;;;;;;;-141.02;100.00;55844.97;5093946;28;20193;-75
2022/05/09 11:10:27;;;;;;;15.95;15.35;;;;;;;-141.02;100.00;55844.97;5093997;28;20708;-73
2022/05/09 11:13:12;;;;;;;16.00;15.40;;;;;;;-141.02;100.00;55844.97;5093410;28;20197;-73
2022/05/09 11:15:49;;;;;;;16.17;15.48;;;;;;;-141.02;100.00;55844.97;5093423;28;20659;-76
2022/05/09 11:18:50;;;;;;;15.63;15.02;;;;;;;-141.02;100.00;55844.97;5093467;28;20652;-78